SAS21G EKBI-EDVK
Flight info
| Callsign | SAS21G |
|---|---|
| Flight time | 0h 50m |
| Altitude | 34000 |
| Route | ALS M852 EKERN N125 ELSOB/N0432F370 N850 IDEKO DCT LUXUX |
| Aircraft | A319/M-SDE3FGHIRWY/LB1 |
Departure
| Time | 2026-04-30 19:47 |
|---|---|
| Airport | Billund Airport (EKBI) |
Arrival
| Time | 2026-04-30 20:38 |
|---|---|
| Airport | Kassel Airport (EDVK) |
| Time | Latitude | Longitude | Altitude | Speed | Heading |
|---|---|---|---|---|---|
| 2026-04-30 19:04 | 55.74525 | 9.14547 | 232 ft | 0 kts | 357° |
| 2026-04-30 19:34 | 55.74507 | 9.14549 | 232 ft | 2 kts | 357° |
| 2026-04-30 19:35 | 55.74490 | 9.14550 | 235 ft | 2 kts | 357° |
| 2026-04-30 19:35 | 55.74474 | 9.14551 | 235 ft | 2 kts | 4° |
| 2026-04-30 19:35 | 55.74458 | 9.14545 | 233 ft | 2 kts | 22° |
| 2026-04-30 19:35 | 55.74445 | 9.14527 | 233 ft | 2 kts | 77° |
| 2026-04-30 19:36 | 55.74443 | 9.14499 | 236 ft | 2 kts | 84° |
| 2026-04-30 19:36 | 55.74441 | 9.14470 | 233 ft | 2 kts | 84° |
| 2026-04-30 19:36 | 55.74439 | 9.14415 | 235 ft | 0 kts | 89° |
| 2026-04-30 19:40 | 55.74439 | 9.14427 | 231 ft | 3 kts | 88° |
| 2026-04-30 19:40 | 55.74427 | 9.14462 | 232 ft | 5 kts | 145° |
| 2026-04-30 19:40 | 55.74389 | 9.14468 | 231 ft | 7 kts | 177° |
| 2026-04-30 19:40 | 55.74327 | 9.14473 | 231 ft | 11 kts | 177° |
| 2026-04-30 19:41 | 55.74242 | 9.14482 | 231 ft | 12 kts | 176° |
| 2026-04-30 19:41 | 55.74185 | 9.14576 | 232 ft | 14 kts | 89° |
| 2026-04-30 19:41 | 55.74190 | 9.14745 | 233 ft | 12 kts | 87° |
| 2026-04-30 19:41 | 55.74195 | 9.14914 | 234 ft | 15 kts | 86° |
| 2026-04-30 19:42 | 55.74201 | 9.15094 | 235 ft | 15 kts | 87° |
| 2026-04-30 19:42 | 55.74206 | 9.15257 | 236 ft | 13 kts | 87° |
| 2026-04-30 19:42 | 55.74211 | 9.15437 | 237 ft | 16 kts | 87° |
| 2026-04-30 19:42 | 55.74218 | 9.15642 | 239 ft | 18 kts | 86° |
| 2026-04-30 19:43 | 55.74224 | 9.15845 | 240 ft | 15 kts | 86° |
| 2026-04-30 19:43 | 55.74230 | 9.16025 | 241 ft | 15 kts | 87° |
| 2026-04-30 19:43 | 55.74237 | 9.16226 | 242 ft | 15 kts | 86° |
| 2026-04-30 19:44 | 55.74248 | 9.16588 | 245 ft | 14 kts | 87° |
| 2026-04-30 19:44 | 55.74253 | 9.16765 | 246 ft | 14 kts | 86° |
| 2026-04-30 19:44 | 55.74259 | 9.16953 | 247 ft | 17 kts | 86° |
| 2026-04-30 19:44 | 55.74265 | 9.17132 | 248 ft | 15 kts | 87° |
| 2026-04-30 19:45 | 55.74271 | 9.17329 | 249 ft | 17 kts | 88° |
| 2026-04-30 19:45 | 55.74277 | 9.17534 | 251 ft | 15 kts | 86° |
| 2026-04-30 19:45 | 55.74283 | 9.17739 | 252 ft | 18 kts | 86° |
| 2026-04-30 19:45 | 55.74289 | 9.17939 | 253 ft | 15 kts | 87° |
| 2026-04-30 19:46 | 55.74270 | 9.18095 | 254 ft | 9 kts | 125° |
| 2026-04-30 19:46 | 55.74204 | 9.18151 | 254 ft | 13 kts | 174° |
| 2026-04-30 19:46 | 55.74129 | 9.18091 | 254 ft | 11 kts | 244° |
| 2026-04-30 19:46 | 55.74122 | 9.17919 | 252 ft | 23 kts | 266° |
| 2026-04-30 19:47 | 55.74101 | 9.17227 | 249 ft | 89 kts | 267° |
| 2026-04-30 19:47 | 55.74073 | 9.16338 | 243 ft | 129 kts | 266° |
| 2026-04-30 19:47 | 55.74010 | 9.13764 | 576 ft | 174 kts | 269° |
| 2026-04-30 19:47 | 55.74130 | 9.11476 | 972 ft | 201 kts | 291° |
| 2026-04-30 19:48 | 55.74918 | 9.09193 | 1383 ft | 234 kts | 306° |
| 2026-04-30 19:48 | 55.75972 | 9.06830 | 2072 ft | 251 kts | 309° |
| 2026-04-30 19:48 | 55.77101 | 9.04437 | 3191 ft | 255 kts | 309° |
| 2026-04-30 19:48 | 55.78260 | 9.01969 | 4245 ft | 263 kts | 309° |
| 2026-04-30 19:49 | 55.79315 | 8.99264 | 5249 ft | 272 kts | 292° |
| 2026-04-30 19:49 | 55.78612 | 8.92919 | 7197 ft | 280 kts | 223° |
| 2026-04-30 19:49 | 55.76903 | 8.91272 | 8202 ft | 280 kts | 189° |
| 2026-04-30 19:50 | 55.74988 | 8.91572 | 9187 ft | 281 kts | 156° |
| 2026-04-30 19:50 | 55.73423 | 8.93572 | 10176 ft | 284 kts | 133° |
| 2026-04-30 19:50 | 55.72050 | 8.96225 | 10905 ft | 297 kts | 131° |
| 2026-04-30 19:50 | 55.70633 | 8.98997 | 11245 ft | 321 kts | 131° |
| 2026-04-30 19:51 | 55.69095 | 9.02026 | 11763 ft | 335 kts | 131° |
| 2026-04-30 19:51 | 55.67465 | 9.05031 | 12537 ft | 341 kts | 136° |
| 2026-04-30 19:51 | 55.65621 | 9.07718 | 13354 ft | 346 kts | 142° |
| 2026-04-30 19:51 | 55.63649 | 9.10189 | 14169 ft | 350 kts | 144° |
| 2026-04-30 19:52 | 55.61600 | 9.12588 | 14881 ft | 355 kts | 145° |
| 2026-04-30 19:52 | 55.59523 | 9.14995 | 15564 ft | 359 kts | 145° |
| 2026-04-30 19:52 | 55.57435 | 9.17460 | 16241 ft | 364 kts | 144° |
| 2026-04-30 19:52 | 55.55328 | 9.20011 | 16902 ft | 369 kts | 143° |
| 2026-04-30 19:53 | 55.53210 | 9.22626 | 17582 ft | 374 kts | 143° |
| 2026-04-30 19:53 | 55.51074 | 9.25292 | 18248 ft | 379 kts | 143° |
| 2026-04-30 19:53 | 55.48903 | 9.28008 | 18896 ft | 384 kts | 143° |
| 2026-04-30 19:53 | 55.46717 | 9.30742 | 19492 ft | 389 kts | 143° |
| 2026-04-30 19:54 | 55.44494 | 9.33519 | 20115 ft | 393 kts | 143° |
| 2026-04-30 19:54 | 55.42253 | 9.36308 | 20734 ft | 397 kts | 143° |
| 2026-04-30 19:54 | 55.39979 | 9.39127 | 21352 ft | 401 kts | 143° |
| 2026-04-30 19:54 | 55.37693 | 9.41952 | 21960 ft | 405 kts | 143° |
| 2026-04-30 19:55 | 55.35376 | 9.44813 | 22553 ft | 408 kts | 143° |
| 2026-04-30 19:55 | 55.33041 | 9.47693 | 23120 ft | 412 kts | 143° |
| 2026-04-30 19:55 | 55.30682 | 9.50598 | 23676 ft | 416 kts | 143° |
| 2026-04-30 19:55 | 55.28263 | 9.53573 | 24202 ft | 420 kts | 143° |
| 2026-04-30 19:56 | 55.26041 | 9.56301 | 24628 ft | 423 kts | 143° |
| 2026-04-30 19:56 | 55.23615 | 9.59274 | 25083 ft | 427 kts | 143° |
| 2026-04-30 19:56 | 55.21171 | 9.62265 | 25536 ft | 430 kts | 143° |
| 2026-04-30 19:56 | 55.18704 | 9.65279 | 25980 ft | 433 kts | 143° |
| 2026-04-30 19:57 | 55.16228 | 9.68288 | 26420 ft | 437 kts | 144° |
| 2026-04-30 19:57 | 55.13503 | 9.70729 | 26849 ft | 443 kts | 160° |
| 2026-04-30 19:57 | 55.10512 | 9.72130 | 27293 ft | 447 kts | 165° |
| 2026-04-30 19:57 | 55.07475 | 9.73432 | 27746 ft | 451 kts | 165° |
| 2026-04-30 19:58 | 55.04415 | 9.74728 | 28176 ft | 454 kts | 166° |
| 2026-04-30 19:58 | 55.01332 | 9.76021 | 28609 ft | 457 kts | 166° |
| 2026-04-30 19:58 | 54.98235 | 9.77317 | 29040 ft | 460 kts | 166° |
| 2026-04-30 19:58 | 54.95112 | 9.78626 | 29454 ft | 463 kts | 166° |
| 2026-04-30 19:59 | 54.91984 | 9.79940 | 29856 ft | 466 kts | 166° |
| 2026-04-30 19:59 | 54.88808 | 9.81278 | 30259 ft | 469 kts | 166° |
| 2026-04-30 19:59 | 54.82440 | 9.83953 | 30955 ft | 474 kts | 166° |
| 2026-04-30 20:00 | 54.79212 | 9.85296 | 31295 ft | 477 kts | 166° |
| 2026-04-30 20:00 | 54.75972 | 9.86640 | 31630 ft | 478 kts | 166° |
| 2026-04-30 20:00 | 54.72741 | 9.87983 | 32075 ft | 477 kts | 166° |
| 2026-04-30 20:00 | 54.69523 | 9.89311 | 32578 ft | 475 kts | 167° |
| 2026-04-30 20:01 | 54.62969 | 9.90129 | 33571 ft | 472 kts | 185° |
| 2026-04-30 20:01 | 54.60767 | 9.89651 | 33917 ft | 470 kts | 191° |
| 2026-04-30 20:01 | 54.57568 | 9.88616 | 34428 ft | 468 kts | 191° |
| 2026-04-30 20:02 | 54.51218 | 9.86577 | 34678 ft | 460 kts | 191° |
| 2026-04-30 20:02 | 54.48068 | 9.85573 | 34427 ft | 460 kts | 191° |
| 2026-04-30 20:03 | 54.41857 | 9.83588 | 34455 ft | 448 kts | 191° |
| 2026-04-30 20:03 | 54.38784 | 9.82608 | 34459 ft | 443 kts | 191° |
| 2026-04-30 20:03 | 54.32791 | 9.80706 | 34437 ft | 441 kts | 191° |
| 2026-04-30 20:04 | 54.27130 | 9.78902 | 34438 ft | 436 kts | 191° |
| 2026-04-30 20:05 | 54.18443 | 9.76045 | 34443 ft | 432 kts | 192° |
| 2026-04-30 20:05 | 54.09663 | 9.72973 | 34436 ft | 429 kts | 192° |
| 2026-04-30 20:06 | 54.03761 | 9.70942 | 34441 ft | 429 kts | 192° |
| 2026-04-30 20:06 | 53.97948 | 9.68980 | 34436 ft | 429 kts | 192° |
| 2026-04-30 20:07 | 53.92065 | 9.66995 | 34442 ft | 429 kts | 192° |
| 2026-04-30 20:08 | 53.83778 | 9.64183 | 34441 ft | 424 kts | 192° |
| 2026-04-30 20:08 | 53.77989 | 9.62226 | 34449 ft | 423 kts | 192° |
| 2026-04-30 20:09 | 53.72205 | 9.60278 | 34446 ft | 424 kts | 192° |
| 2026-04-30 20:09 | 53.63491 | 9.57732 | 34453 ft | 424 kts | 184° |
| 2026-04-30 20:10 | 53.54664 | 9.56699 | 34457 ft | 424 kts | 184° |
| 2026-04-30 20:11 | 53.45880 | 9.55233 | 34454 ft | 424 kts | 188° |
| 2026-04-30 20:11 | 53.39970 | 9.53812 | 34447 ft | 424 kts | 188° |
| 2026-04-30 20:12 | 53.31196 | 9.51828 | 34439 ft | 424 kts | 187° |
| 2026-04-30 20:13 | 53.25333 | 9.50582 | 34435 ft | 424 kts | 187° |
| 2026-04-30 20:13 | 53.19465 | 9.49338 | 34432 ft | 425 kts | 187° |
| 2026-04-30 20:14 | 53.13607 | 9.48086 | 34433 ft | 424 kts | 187° |
| 2026-04-30 20:14 | 53.07751 | 9.46828 | 34433 ft | 425 kts | 187° |
| 2026-04-30 20:15 | 53.01890 | 9.45585 | 34432 ft | 424 kts | 186° |
| 2026-04-30 20:15 | 52.96022 | 9.45843 | 34433 ft | 423 kts | 171° |
| 2026-04-30 20:16 | 52.90182 | 9.47251 | 34437 ft | 423 kts | 171° |
| 2026-04-30 20:16 | 52.84352 | 9.48620 | 34443 ft | 423 kts | 171° |
| 2026-04-30 20:17 | 52.78481 | 9.49992 | 34435 ft | 423 kts | 171° |
| 2026-04-30 20:17 | 52.72652 | 9.51366 | 34439 ft | 423 kts | 171° |
| 2026-04-30 20:18 | 52.66830 | 9.52744 | 34437 ft | 423 kts | 171° |
| 2026-04-30 20:18 | 52.61012 | 9.54111 | 34158 ft | 421 kts | 171° |
| 2026-04-30 20:18 | 52.58136 | 9.54778 | 33341 ft | 427 kts | 171° |
| 2026-04-30 20:19 | 52.55202 | 9.55455 | 32790 ft | 426 kts | 171° |
| 2026-04-30 20:19 | 52.53395 | 9.55870 | 32430 ft | 426 kts | 171° |
| 2026-04-30 20:19 | 52.49443 | 9.56451 | 31564 ft | 428 kts | 181° |
| 2026-04-30 20:19 | 52.46472 | 9.55618 | 30241 ft | 445 kts | 195° |
| 2026-04-30 20:20 | 52.43448 | 9.54211 | 28989 ft | 455 kts | 195° |
| 2026-04-30 20:20 | 52.40408 | 9.52744 | 28125 ft | 455 kts | 196° |
| 2026-04-30 20:20 | 52.37378 | 9.51266 | 27400 ft | 452 kts | 195° |
| 2026-04-30 20:20 | 52.34374 | 9.49810 | 26729 ft | 449 kts | 195° |
| 2026-04-30 20:21 | 52.31390 | 9.48385 | 26063 ft | 445 kts | 195° |
| 2026-04-30 20:21 | 52.28384 | 9.46967 | 25417 ft | 441 kts | 194° |
| 2026-04-30 20:21 | 52.25458 | 9.45595 | 24784 ft | 438 kts | 194° |
| 2026-04-30 20:21 | 52.22525 | 9.44225 | 24142 ft | 435 kts | 194° |
| 2026-04-30 20:22 | 52.19654 | 9.42887 | 23486 ft | 431 kts | 194° |
| 2026-04-30 20:22 | 52.16762 | 9.41536 | 22836 ft | 427 kts | 194° |
| 2026-04-30 20:22 | 52.13913 | 9.40204 | 22211 ft | 423 kts | 194° |
| 2026-04-30 20:22 | 52.11105 | 9.38892 | 21638 ft | 419 kts | 193° |
| 2026-04-30 20:23 | 52.08322 | 9.37594 | 21085 ft | 415 kts | 193° |
| 2026-04-30 20:23 | 52.05546 | 9.36307 | 20527 ft | 411 kts | 193° |
| 2026-04-30 20:23 | 52.02811 | 9.35043 | 19973 ft | 407 kts | 193° |
| 2026-04-30 20:23 | 52.00087 | 9.33781 | 19411 ft | 404 kts | 193° |
| 2026-04-30 20:24 | 51.97414 | 9.32545 | 18866 ft | 400 kts | 193° |
| 2026-04-30 20:24 | 51.94734 | 9.31307 | 18252 ft | 396 kts | 193° |
| 2026-04-30 20:24 | 51.92103 | 9.30092 | 17635 ft | 392 kts | 193° |
| 2026-04-30 20:24 | 51.89502 | 9.28889 | 17018 ft | 388 kts | 192° |
| 2026-04-30 20:25 | 51.84365 | 9.26517 | 15822 ft | 379 kts | 192° |
| 2026-04-30 20:25 | 51.81880 | 9.25371 | 15649 ft | 363 kts | 192° |
| 2026-04-30 20:26 | 51.77213 | 9.23215 | 15398 ft | 334 kts | 191° |
| 2026-04-30 20:26 | 51.72828 | 9.21209 | 14865 ft | 321 kts | 191° |
| 2026-04-30 20:26 | 51.70684 | 9.20237 | 14511 ft | 318 kts | 191° |
| 2026-04-30 20:27 | 51.66476 | 9.18323 | 13781 ft | 314 kts | 191° |
| 2026-04-30 20:27 | 51.62285 | 9.16409 | 12824 ft | 307 kts | 191° |
| 2026-04-30 20:28 | 51.58223 | 9.14536 | 11432 ft | 308 kts | 195° |
| 2026-04-30 20:28 | 51.54822 | 9.10351 | 10336 ft | 305 kts | 217° |
| 2026-04-30 20:29 | 51.51038 | 9.08362 | 9114 ft | 287 kts | 193° |
| 2026-04-30 20:30 | 51.46796 | 9.03248 | 7582 ft | 279 kts | 198° |
| 2026-04-30 20:30 | 51.41857 | 9.00442 | 7154 ft | 226 kts | 194° |
| 2026-04-30 20:31 | 51.37769 | 9.00544 | 5841 ft | 195 kts | 129° |
| 2026-04-30 20:32 | 51.37917 | 9.06151 | 4788 ft | 186 kts | 49° |
| 2026-04-30 20:32 | 51.39874 | 9.08773 | 4059 ft | 176 kts | 46° |
| 2026-04-30 20:33 | 51.40804 | 9.10024 | 3814 ft | 174 kts | 47° |
| 2026-04-30 20:33 | 51.42639 | 9.12532 | 3302 ft | 169 kts | 52° |
| 2026-04-30 20:33 | 51.43213 | 9.14081 | 3092 ft | 157 kts | 79° |
| 2026-04-30 20:34 | 51.43238 | 9.17227 | 3014 ft | 135 kts | 98° |
| 2026-04-30 20:34 | 51.43088 | 9.20154 | 2968 ft | 126 kts | 98° |
| 2026-04-30 20:35 | 51.43016 | 9.21540 | 2852 ft | 125 kts | 98° |
| 2026-04-30 20:35 | 51.42943 | 9.22925 | 2713 ft | 125 kts | 99° |
| 2026-04-30 20:35 | 51.42797 | 9.25704 | 2387 ft | 125 kts | 97° |
| 2026-04-30 20:36 | 51.42726 | 9.27063 | 2228 ft | 122 kts | 97° |
| 2026-04-30 20:36 | 51.42654 | 9.28421 | 2059 ft | 122 kts | 97° |
| 2026-04-30 20:36 | 51.42508 | 9.31185 | 1695 ft | 128 kts | 96° |
| 2026-04-30 20:37 | 51.42432 | 9.32617 | 1501 ft | 131 kts | 95° |
| 2026-04-30 20:37 | 51.42352 | 9.34102 | 1326 ft | 133 kts | 95° |
| 2026-04-30 20:37 | 51.42271 | 9.35611 | 1142 ft | 134 kts | 94° |
| 2026-04-30 20:37 | 51.42195 | 9.37095 | 927 ft | 134 kts | 93° |
| 2026-04-30 20:38 | 51.42112 | 9.38497 | 844 ft | 118 kts | 94° |
| 2026-04-30 20:38 | 51.42059 | 9.39588 | 847 ft | 73 kts | 94° |
| 2026-04-30 20:38 | 51.42018 | 9.39998 | 834 ft | 27 kts | 109° |
| 2026-04-30 20:39 | 51.41906 | 9.40262 | 838 ft | 6 kts | 167° |
| 2026-04-30 20:39 | 51.41894 | 9.40265 | 840 ft | 3 kts | 171° |
| 2026-04-30 20:39 | 51.41875 | 9.40254 | 837 ft | 2 kts | 234° |
| 2026-04-30 20:40 | 51.41873 | 9.40108 | 840 ft | 10 kts | 278° |
| 2026-04-30 20:40 | 51.41879 | 9.39979 | 844 ft | 13 kts | 273° |
| 2026-04-30 20:40 | 51.41887 | 9.39821 | 845 ft | 15 kts | 275° |
| 2026-04-30 20:41 | 51.41908 | 9.39436 | 849 ft | 19 kts | 274° |
| 2026-04-30 20:41 | 51.41920 | 9.39210 | 851 ft | 22 kts | 275° |
| 2026-04-30 20:41 | 51.41933 | 9.38974 | 854 ft | 17 kts | 275° |
| 2026-04-30 20:41 | 51.41934 | 9.38869 | 849 ft | 6 kts | 242° |
| 2026-04-30 20:42 | 51.41926 | 9.38866 | 854 ft | 0 kts | 194° |
| 2026-04-30 20:42 | 51.41895 | 9.38858 | 862 ft | 6 kts | 186° |
| 2026-04-30 20:42 | 51.41723 | 9.38836 | 864 ft | 15 kts | 185° |
| 2026-04-30 20:43 | 51.41696 | 9.38803 | 858 ft | 4 kts | 270° |
| 2026-04-30 20:43 | 51.41698 | 9.38753 | 864 ft | 6 kts | 276° |
| 2026-04-30 20:43 | 51.41699 | 9.38744 | 864 ft | 0 kts | 276° |